createdAt,value
2022-10-29T00:01:14.533Z,79.08
2022-10-29T00:11:41.804Z,79.29
2022-10-29T00:22:09.394Z,79.54
2022-10-29T00:32:36.845Z,79.50
2022-10-29T00:43:16.879Z,79.10
2022-10-29T00:53:48.452Z,78.43
2022-10-29T01:04:16.275Z,81.44
2022-10-29T01:14:57.611Z,83.56
2022-10-29T01:25:50.978Z,84.53
2022-10-29T01:36:26.560Z,85.34
2022-10-29T01:46:59.177Z,85.41
2022-10-29T01:57:31.495Z,84.85
2022-10-29T02:08:03.688Z,83.79
2022-10-29T02:18:31.220Z,82.81
2022-10-29T02:28:59.167Z,81.95
2022-10-29T02:39:26.484Z,81.52
2022-10-29T02:49:53.823Z,81.15
2022-10-29T03:00:21.594Z,81.10
2022-10-29T03:10:49.180Z,80.66
2022-10-29T03:21:16.517Z,80.48
2022-10-29T03:31:44.107Z,80.39
2022-10-29T03:42:11.406Z,80.27
2022-10-29T03:52:38.718Z,80.08
2022-10-29T04:03:06.123Z,79.86
2022-10-29T04:13:33.572Z,79.63
2022-10-29T04:34:48.185Z,79.61
2022-10-29T04:45:15.753Z,79.54
2022-10-29T04:55:43.284Z,79.44
2022-10-29T05:06:10.828Z,79.60
2022-10-29T05:16:38.191Z,79.64
2022-10-29T05:27:08.367Z,79.43
2022-10-29T05:37:35.943Z,79.18
2022-10-29T05:48:05.306Z,79.12
2022-10-29T05:58:32.841Z,79.16
2022-10-29T06:09:00.165Z,79.35
2022-10-29T06:19:27.618Z,79.44
2022-10-29T06:29:54.978Z,79.46
2022-10-29T06:40:22.477Z,79.51
2022-10-29T06:50:49.806Z,79.35
2022-10-29T07:01:17.406Z,79.12
2022-10-29T07:11:44.752Z,78.96
2022-10-29T07:22:12.532Z,78.63
2022-10-29T07:32:39.951Z,78.52
2022-10-29T07:43:07.454Z,78.51
2022-10-29T07:53:34.940Z,78.42
2022-10-29T08:04:02.263Z,78.37
2022-10-29T08:14:29.809Z,78.03
2022-10-29T08:24:57.160Z,77.91
2022-10-29T08:35:24.828Z,77.86
2022-10-29T08:45:54.843Z,77.78
2022-10-29T08:56:27.150Z,77.48
2022-10-29T09:07:10.808Z,77.39
2022-10-29T09:17:44.072Z,76.62
2022-10-29T09:28:25.201Z,75.82
2022-10-29T09:38:58.396Z,75.11
2022-10-29T09:49:36.684Z,74.58
2022-10-29T10:00:06.823Z,74.08
2022-10-29T10:10:35.001Z,73.83
2022-10-29T10:21:09.755Z,73.54
2022-10-29T10:31:37.101Z,73.05
2022-10-29T10:42:07.137Z,72.47
2022-10-29T10:52:35.272Z,72.34
2022-10-29T11:03:10.622Z,71.51
2022-10-29T11:13:40.711Z,71.16
2022-10-29T11:24:13.342Z,71.18
2022-10-29T11:34:46.931Z,70.81
2022-10-29T11:45:19.473Z,70.34
2022-10-29T11:55:58.008Z,69.89
2022-10-29T12:06:32.936Z,69.21
2022-10-29T12:17:10.442Z,69.06
2022-10-29T12:27:45.796Z,69.48
2022-10-29T12:38:25.847Z,69.22
2022-10-29T12:49:11.617Z,68.70
2022-10-29T12:59:39.698Z,68.46
2022-10-29T13:10:42.032Z,68.68
2022-10-29T13:21:09.825Z,69.02
2022-10-29T13:31:47.638Z,69.31
2022-10-29T13:42:15.826Z,69.57
2022-10-29T13:52:45.969Z,69.35
2022-10-29T14:03:23.148Z,69.35
2022-10-29T14:13:52.486Z,69.61
2022-10-29T14:24:19.960Z,69.69
2022-10-29T14:34:49.452Z,69.46
2022-10-29T14:45:24.071Z,69.70
2022-10-29T14:55:52.296Z,69.87
2022-10-29T15:06:22.007Z,70.11
2022-10-29T15:16:50.345Z,70.27
2022-10-29T15:27:17.892Z,70.54
2022-10-29T15:37:46.809Z,70.69
2022-10-29T15:48:36.546Z,71.01
2022-10-29T15:59:03.993Z,71.37
2022-10-29T16:09:31.327Z,71.53
2022-10-29T16:19:58.663Z,71.93
2022-10-29T16:30:26.491Z,72.14
2022-10-29T16:40:53.912Z,72.35
2022-10-29T16:51:21.334Z,72.36
2022-10-29T17:01:49.865Z,72.67
2022-10-29T17:12:17.499Z,72.94
2022-10-29T17:22:44.885Z,73.09
2022-10-29T17:33:13.077Z,73.25
2022-10-29T17:43:40.576Z,73.29
2022-10-29T17:54:08.305Z,73.45
2022-10-29T18:04:35.856Z,73.55
2022-10-29T18:15:03.462Z,73.70
2022-10-29T18:25:30.834Z,73.83
2022-10-29T18:35:59.020Z,74.05
2022-10-29T18:46:24.800Z,74.05
2022-10-29T18:56:52.077Z,74.29
2022-10-29T19:07:19.477Z,74.51
2022-10-29T19:17:47.146Z,74.43
2022-10-29T19:28:14.474Z,74.47
2022-10-29T19:38:41.866Z,74.67
2022-10-29T19:49:09.400Z,74.98
2022-10-29T19:59:37.193Z,75.42
2022-10-29T20:10:05.390Z,75.71
2022-10-29T20:20:32.726Z,75.94
2022-10-29T20:31:29.767Z,76.11
2022-10-29T20:41:57.977Z,76.19
2022-10-29T20:52:25.398Z,76.41
2022-10-29T21:02:52.622Z,76.42
2022-10-29T21:13:19.988Z,76.67
2022-10-29T21:23:47.509Z,76.62
2022-10-29T21:34:14.800Z,76.79
2022-10-29T21:44:42.097Z,76.99
2022-10-29T21:55:10.309Z,76.95
2022-10-29T22:05:37.603Z,77.06
2022-10-29T22:16:06.203Z,77.26
2022-10-29T22:26:35.011Z,77.36
2022-10-29T22:37:02.360Z,77.47
2022-10-29T22:47:29.617Z,77.13
2022-10-29T22:57:58.320Z,77.04
2022-10-29T23:08:25.631Z,77.17
2022-10-29T23:18:54.048Z,76.97
2022-10-29T23:29:21.388Z,76.94
2022-10-29T23:39:48.636Z,76.84
2022-10-29T23:50:15.985Z,76.95
